Charter Quote
Worldwide +1-877-727-2538 Call
Select Language Lang
SAFETY RELIABILITY EXPERIENCE

Orcas Island Airport (KORS) - Jet Charter Services

AIRPORT INFORMATION
ICAOKORS
IATAESD
LOCATIONOrcas Island, WA, United States
FACILITY TYPEAIRPORT
Runway Length (ft) Width (ft) Surface Type Elevation (ft)
RUNWAY 16 2901 60 ASPH 11.20000

At Paramount Business Jets you can hire chartered private jets to and from Orcas Island Airport with as little as 4 hours of notice. All flights booked via Paramount Business Jets are operated by certified direct air carriers that meet and exceed the FAA part 135 and 121 protocol or a foreign equivalent safety authority. Furthermore, Paramount Business Jets subscribes to ARGUS for their third party safety checks of operators, aircraft, and crews prior each and every flight to and from Orcas Island Airport and worldwide.

  • Quote a trip using Orcas Island Airport or call us 24/7 - 365 days a year at +1-877-727-2538.
Questions? Call +1-877-727-2538

METAR Weather Data at Orcas Island Airport, KORS, ESD

STATIONKORS
OBSERVEDSun Mar 24, 06:55 UTC
NOWSun Mar 24, 07:09 UTC
AGE14 min ago
WINDS at 3 mph
VISIBILITY10 miles
CLOUDSclear skies
TEMP43°F (6°C)
DEWPT41°F (5°C)
HUMIDITY93%
BAROMETER1023 hPa (30.20 in Hg)
METARKORS 240655Z AUTO 17003KT 10SM CLR 06/05 A3020 RMK AO2

Call us on +1-877-727-2538 (24 Hours) to Hire a Private Jet or Get a Quick Quote.

Find Airports Near any Location

Processing
...